Time;durP1;ratioP1;P1;durP2;ratioP2;P2;SDS_P1;SDS_P2;PMS_P1;PMS_P2;Temp;Humidity;BMP_temperature;BMP_pressure;BME280_temperature;BME280_humidity;BME280_pressure;Samples;Min_cycle;Max_cycle;Signal;HPM_P1;HPM_P2
2023/05/30 00:02:15;;;;;;;12.13;11.70;;;11.30;99.90;;;;;;5040536;28;20463;-68
2023/05/30 00:04:42;;;;;;;12.33;11.83;;;11.20;99.90;;;;;;5038517;28;20559;-68
2023/05/30 00:07:09;;;;;;;12.50;12.00;;;11.20;99.90;;;;;;5036502;28;20480;-67
2023/05/30 00:09:37;;;;;;;15.87;15.00;;;11.20;99.90;;;;;;5041508;28;20958;-67
2023/05/30 00:12:05;;;;;;;12.60;12.10;;;11.10;99.90;;;;;;5038170;28;20461;-68
2023/05/30 00:14:32;;;;;;;12.60;12.10;;;11.00;99.90;;;;;;5047759;28;20470;-68
2023/05/30 00:16:59;;;;;;;11.80;11.40;;;11.00;99.90;;;;;;5035228;28;20465;-68
2023/05/30 00:19:26;;;;;;;12.57;12.07;;;11.00;99.90;;;;;;5046785;28;20537;-68
2023/05/30 00:21:54;;;;;;;12.60;11.70;;;10.90;99.90;;;;;;5043575;28;20468;-68
2023/05/30 00:24:24;;;;;;;11.67;11.27;;;10.90;99.90;;;;;;5042993;28;20460;-68
2023/05/30 00:26:54;;;;;;;12.33;11.83;;;10.80;99.90;;;;;;5043426;28;20462;-68
2023/05/30 00:29:23;;;;;;;11.70;11.30;;;10.80;99.90;;;;;;5042454;28;20869;-68
2023/05/30 00:31:50;;;;;;;11.70;11.30;;;10.70;99.90;;;;;;5043020;28;20492;-67
2023/05/30 00:34:17;;;;;;;11.80;11.40;;;10.70;99.90;;;;;;5041258;28;20468;-67
2023/05/30 00:36:44;;;;;;;11.87;11.47;;;10.60;99.90;;;;;;5030618;28;20465;-68
2023/05/30 00:39:12;;;;;;;12.37;11.87;;;10.60;99.90;;;;;;5039074;28;20495;-67
2023/05/30 00:41:40;;;;;;;11.47;11.07;;;10.60;99.90;;;;;;5039685;28;20468;-67
2023/05/30 00:44:09;;;;;;;11.90;11.50;;;10.50;99.90;;;;;;5040257;28;20456;-68
2023/05/30 00:46:35;;;;;;;11.27;10.87;;;10.50;99.90;;;;;;5039329;28;20522;-67
2023/05/30 00:49:02;;;;;;;13.30;12.40;;;10.40;99.90;;;;;;5032575;28;20461;-67
2023/05/30 00:51:31;;;;;;;11.97;11.47;;;10.50;99.90;;;;;;5040667;28;20878;-67
2023/05/30 00:54:01;;;;;;;11.30;10.90;;;10.50;99.90;;;;;;5031361;28;20488;-67
2023/05/30 00:56:27;;;;;;;11.30;10.90;;;10.50;99.90;;;;;;5031738;28;20869;-68
2023/05/30 00:58:56;;;;;;;23.33;11.50;;;10.40;99.90;;;;;;5031678;28;20456;-68
2023/05/30 01:01:25;;;;;;;11.97;11.47;;;10.40;99.90;;;;;;5037717;28;20518;-68
2023/05/30 01:03:52;;;;;;;11.20;10.80;;;10.30;99.90;;;;;;5040385;28;20495;-68
2023/05/30 01:06:22;;;;;;;11.57;11.07;;;10.30;99.90;;;;;;5040535;28;20554;-68
2023/05/30 01:08:51;;;;;;;11.20;10.80;;;10.30;99.90;;;;;;5034539;28;20870;-68
2023/05/30 01:11:30;;;;;;;12.43;11.93;;;10.30;99.90;;;;;;5037347;28;20990;-68
2023/05/30 01:14:06;;;;;;;11.80;11.40;;;10.20;99.90;;;;;;5034390;28;20921;-68
2023/05/30 01:16:40;;;;;;;11.37;10.97;;;10.30;99.90;;;;;;5046332;28;20447;-68
2023/05/30 01:19:21;;;;;;;11.80;11.40;;;10.30;99.90;;;;;;5035182;28;21012;-68
2023/05/30 01:21:53;;;;;;;11.67;11.27;;;10.30;99.90;;;;;;5033647;28;20702;-68
2023/05/30 01:24:26;;;;;;;11.80;11.40;;;10.30;99.90;;;;;;5037198;28;20496;-68
2023/05/30 01:27:11;;;;;;;10.93;10.53;;;10.30;99.90;;;;;;5043727;28;20551;-68
2023/05/30 01:29:43;;;;;;;11.20;10.80;;;10.20;99.90;;;;;;5038963;28;20575;-68
2023/05/30 01:32:10;;;;;;;10.80;10.40;;;10.10;99.90;;;;;;5036813;28;20492;-68
2023/05/30 01:34:37;;;;;;;11.40;10.90;;;10.00;99.90;;;;;;5037139;28;20465;-67
2023/05/30 01:37:05;;;;;;;11.13;10.73;;;10.00;99.90;;;;;;5036159;28;20510;-68
2023/05/30 01:39:33;;;;;;;10.80;10.40;;;10.00;99.90;;;;;;5043957;28;20464;-68
2023/05/30 01:42:08;;;;;;;11.00;10.60;;;9.90;99.90;;;;;;5040660;28;20517;-68
2023/05/30 01:44:41;;;;;;;10.83;10.43;;;9.90;99.90;;;;;;5033500;28;20468;-68
2023/05/30 01:47:15;;;;;;;10.70;10.20;;;9.90;99.90;;;;;;5040474;28;20473;-68
2023/05/30 01:49:50;;;;;;;9.83;9.53;;;9.80;99.90;;;;;;5038197;28;20468;-67
2023/05/30 01:52:21;;;;;;;9.60;9.30;;;9.70;99.90;;;;;;5042559;28;20494;-68
2023/05/30 01:54:52;;;;;;;9.57;9.27;;;9.70;99.90;;;;;;5046841;28;20701;-68
2023/05/30 01:57:20;;;;;;;9.00;8.67;;;9.60;99.90;;;;;;5041725;28;20495;-68
2023/05/30 01:59:49;;;;;;;9.23;8.93;;;9.60;99.90;;;;;;5037147;28;20939;-68
2023/05/30 02:02:17;;;;;;;10.10;9.70;;;9.50;99.90;;;;;;5033824;28;20460;-68
2023/05/30 02:04:44;;;;;;;9.27;8.97;;;9.50;99.90;;;;;;5038633;28;20552;-68
2023/05/30 02:07:11;;;;;;;8.83;8.53;;;9.40;99.90;;;;;;5039913;28;20456;-68
2023/05/30 02:09:39;;;;;;;9.50;9.20;;;9.40;99.90;;;;;;5038029;28;21041;-68
2023/05/30 02:12:08;;;;;;;9.30;9.00;;;9.30;99.90;;;;;;5045078;28;20973;-68
2023/05/30 02:14:35;;;;;;;8.90;8.60;;;9.30;99.90;;;;;;5039364;28;20456;-68
2023/05/30 02:17:05;;;;;;;9.20;8.90;;;9.30;99.90;;;;;;5044741;28;20451;-68
2023/05/30 02:19:32;;;;;;;10.53;10.03;;;9.20;99.90;;;;;;5049353;28;20537;-68
2023/05/30 02:21:59;;;;;;;8.83;8.53;;;9.20;99.90;;;;;;5048445;28;20461;-68
2023/05/30 02:24:25;;;;;;;10.37;9.77;;;9.20;99.90;;;;;;5032241;28;20940;-68
2023/05/30 02:26:54;;;;;;;10.77;9.30;;;9.10;99.90;;;;;;5043500;28;20546;-68
2023/05/30 02:29:22;;;;;;;9.10;8.80;;;9.10;99.90;;;;;;5044655;28;20487;-68
2023/05/30 02:31:50;;;;;;;15.23;8.87;;;9.10;99.90;;;;;;5042644;28;20870;-68
2023/05/30 02:34:18;;;;;;;12.67;11.73;;;9.10;99.90;;;;;;5042261;28;20819;-68
2023/05/30 02:36:44;;;;;;;9.00;8.70;;;9.00;99.90;;;;;;5031040;28;20460;-68
2023/05/30 02:39:11;;;;;;;9.90;9.30;;;9.00;99.90;;;;;;5051460;28;20470;-68
2023/05/30 02:41:38;;;;;;;9.40;9.10;;;9.00;99.90;;;;;;5040785;28;20460;-67
2023/05/30 02:44:06;;;;;;;9.10;8.80;;;8.90;99.90;;;;;;5044861;28;20786;-68
2023/05/30 02:46:34;;;;;;;9.50;9.10;;;9.00;99.90;;;;;;5046209;28;20469;-68
2023/05/30 02:49:01;;;;;;;8.20;7.90;;;8.90;99.90;;;;;;5049434;28;20471;-68
2023/05/30 02:51:31;;;;;;;8.73;8.43;;;8.90;99.90;;;;;;5042042;28;20498;-69
2023/05/30 02:53:57;;;;;;;9.30;9.00;;;8.90;99.90;;;;;;5040267;28;20558;-68
2023/05/30 02:56:25;;;;;;;18.97;9.87;;;8.80;99.90;;;;;;5051161;28;20467;-68
2023/05/30 02:58:53;;;;;;;10.37;9.83;;;8.80;99.90;;;;;;5042896;28;20569;-68
2023/05/30 03:01:21;;;;;;;8.57;8.27;;;8.90;99.90;;;;;;5039574;28;20864;-68
2023/05/30 03:03:48;;;;;;;8.60;8.30;;;8.80;99.90;;;;;;5040104;28;20467;-69
2023/05/30 03:06:15;;;;;;;8.80;8.50;;;8.80;99.90;;;;;;5034881;28;20978;-69
2023/05/30 03:08:44;;;;;;;9.00;8.70;;;8.80;99.90;;;;;;5041286;28;20557;-68
2023/05/30 03:11:11;;;;;;;8.57;8.27;;;8.70;99.90;;;;;;5043659;28;20491;-68
2023/05/30 03:13:38;;;;;;;8.37;8.07;;;8.60;99.90;;;;;;5039947;28;20819;-69
2023/05/30 03:16:06;;;;;;;8.20;7.80;;;8.60;99.90;;;;;;5045163;28;20467;-68
2023/05/30 03:18:33;;;;;;;10.20;9.50;;;8.60;99.90;;;;;;5039491;28;20501;-68
2023/05/30 03:21:00;;;;;;;8.33;8.03;;;8.60;99.90;;;;;;5046569;28;20483;-67
2023/05/30 03:23:27;;;;;;;8.87;8.47;;;8.60;99.90;;;;;;5034035;28;20480;-67
2023/05/30 03:25:56;;;;;;;8.53;8.13;;;8.50;99.90;;;;;;5038538;28;20467;-68
2023/05/30 03:28:25;;;;;;;8.00;7.60;;;8.50;99.90;;;;;;5043795;28;20831;-68
2023/05/30 03:30:55;;;;;;;10.27;9.60;;;8.40;99.90;;;;;;5041788;28;20487;-68
2023/05/30 03:33:23;;;;;;;9.13;8.67;;;8.40;99.90;;;;;;5044985;28;20463;-68
2023/05/30 03:35:50;;;;;;;8.23;7.57;;;8.40;99.90;;;;;;5039618;28;20472;-68
2023/05/30 03:38:19;;;;;;;14.23;8.63;;;8.40;99.90;;;;;;5046118;28;20470;-67
2023/05/30 03:40:48;;;;;;;7.50;7.30;;;8.40;99.90;;;;;;5047139;28;20492;-67
2023/05/30 03:43:16;;;;;;;9.30;8.70;;;8.30;99.90;;;;;;5040240;28;20467;-67
2023/05/30 03:45:43;;;;;;;8.40;8.10;;;8.30;99.90;;;;;;5041369;28;20958;-68
2023/05/30 03:48:10;;;;;;;7.97;7.67;;;8.30;99.90;;;;;;5046031;28;20472;-67
2023/05/30 03:50:37;;;;;;;7.20;7.00;;;8.40;99.90;;;;;;5036270;28;20455;-68
2023/05/30 03:53:04;;;;;;;15.07;10.73;;;8.30;99.90;;;;;;5041258;28;20469;-67
2023/05/30 03:55:33;;;;;;;7.57;7.17;;;8.30;99.90;;;;;;5040601;28;20599;-67
2023/05/30 03:57:59;;;;;;;7.47;7.27;;;8.30;99.90;;;;;;5039210;28;20464;-67
2023/05/30 04:00:28;;;;;;;8.03;7.73;;;8.40;99.90;;;;;;5048813;28;20487;-67
2023/05/30 04:02:58;;;;;;;7.97;7.67;;;8.40;99.90;;;;;;5040322;28;20463;-67
2023/05/30 04:05:25;;;;;;;7.90;7.60;;;8.50;99.90;;;;;;5037629;28;20939;-67
2023/05/30 04:07:53;;;;;;;7.10;6.90;;;8.50;99.90;;;;;;5045874;28;20828;-66
2023/05/30 04:10:20;;;;;;;8.30;7.90;;;8.50;99.90;;;;;;5039362;28;20965;-67
2023/05/30 04:12:47;;;;;;;7.00;6.80;;;8.50;99.90;;;;;;5034756;28;20810;-67
2023/05/30 04:15:13;;;;;;;7.00;6.80;;;8.60;99.90;;;;;;5033902;28;20522;-68
2023/05/30 04:17:43;;;;;;;7.80;7.50;;;8.60;99.90;;;;;;5045277;28;20951;-68
2023/05/30 04:20:12;;;;;;;8.13;7.83;;;8.60;99.90;;;;;;5042826;28;20483;-68
2023/05/30 04:22:40;;;;;;;7.13;6.93;;;8.70;99.90;;;;;;5042236;28;20535;-68
2023/05/30 04:25:08;;;;;;;7.20;7.00;;;8.70;99.90;;;;;;5031037;28;20827;-68
2023/05/30 04:27:36;;;;;;;8.60;8.20;;;8.80;99.90;;;;;;5036052;28;20465;-68
2023/05/30 04:30:04;;;;;;;7.67;7.47;;;8.80;99.90;;;;;;5042758;28;20479;-68
2023/05/30 04:32:33;;;;;;;8.80;8.23;;;8.90;99.90;;;;;;5039354;28;20495;-69
2023/05/30 04:35:02;;;;;;;8.10;7.80;;;8.90;99.90;;;;;;5039519;28;20982;-68
2023/05/30 04:37:33;;;;;;;8.50;8.00;;;9.00;99.90;;;;;;5037211;28;20472;-69
2023/05/30 04:40:00;;;;;;;8.57;7.97;;;9.20;99.90;;;;;;5033991;28;20459;-69
2023/05/30 04:42:27;;;;;;;9.00;8.43;;;9.20;99.90;;;;;;5040341;28;20458;-69
2023/05/30 04:44:54;;;;;;;9.70;8.90;;;9.30;99.90;;;;;;5039531;28;20558;-67
2023/05/30 04:47:23;;;;;;;8.03;7.73;;;9.40;99.90;;;;;;5042995;28;20478;-67
2023/05/30 04:49:53;;;;;;;8.10;7.80;;;9.40;99.90;;;;;;5033799;28;20554;-70
2023/05/30 04:52:23;;;;;;;8.93;8.60;;;9.40;99.90;;;;;;5038827;28;20491;-69
2023/05/30 04:54:49;;;;;;;8.57;8.27;;;9.50;99.90;;;;;;5040764;28;20463;-69
2023/05/30 04:57:16;;;;;;;8.43;8.13;;;9.50;99.90;;;;;;5040051;28;20475;-69
2023/05/30 04:59:44;;;;;;;10.87;9.70;;;9.70;99.90;;;;;;5041480;28;20464;-69
2023/05/30 05:02:11;;;;;;;9.00;8.70;;;9.80;99.90;;;;;;5035181;28;20465;-67
2023/05/30 05:04:38;;;;;;;9.70;9.30;;;9.90;99.90;;;;;;5030483;28;20963;-67
2023/05/30 05:07:05;;;;;;;9.27;8.97;;;10.00;99.90;;;;;;5033137;28;20457;-67
2023/05/30 05:09:33;;;;;;;9.67;9.27;;;10.00;99.90;;;;;;5035148;28;20456;-67
2023/05/30 05:12:01;;;;;;;9.30;9.00;;;10.00;99.90;;;;;;5033664;28;20491;-66
2023/05/30 05:14:28;;;;;;;10.07;9.67;;;10.10;99.90;;;;;;5037287;28;21046;-68
2023/05/30 05:16:55;;;;;;;11.07;10.57;;;10.20;99.90;;;;;;5037793;28;20459;-68
2023/05/30 05:19:22;;;;;;;13.10;12.20;;;10.30;99.90;;;;;;5036841;28;20505;-67
2023/05/30 05:21:48;;;;;;;10.53;10.13;;;10.40;99.90;;;;;;5029570;28;20457;-68
2023/05/30 05:24:16;;;;;;;11.10;10.60;;;10.40;99.90;;;;;;5029404;28;20456;-68
2023/05/30 05:26:44;;;;;;;11.83;11.13;;;10.50;99.90;;;;;;5037518;28;20468;-67
2023/05/30 05:29:11;;;;;;;11.93;11.47;;;10.70;99.90;;;;;;5026874;28;20833;-67
2023/05/30 05:31:38;;;;;;;13.27;12.37;;;10.80;99.90;;;;;;5033181;28;22567;-67
2023/05/30 05:34:06;;;;;;;11.90;11.40;;;10.90;99.90;;;;;;5039125;28;20463;-68
2023/05/30 05:36:33;;;;;;;12.17;11.67;;;10.90;99.90;;;;;;5037175;28;21004;-67
2023/05/30 05:39:01;;;;;;;14.17;13.27;;;11.00;99.90;;;;;;5033475;28;20699;-68
2023/05/30 05:41:27;;;;;;;14.50;13.57;;;11.00;99.90;;;;;;5038203;28;20867;-68
2023/05/30 05:43:57;;;;;;;12.70;12.20;;;11.00;99.90;;;;;;5037375;28;20460;-68
2023/05/30 05:46:24;;;;;;;14.33;13.43;;;11.20;99.90;;;;;;5035071;28;20484;-68
2023/05/30 05:48:51;;;;;;;11.70;11.30;;;11.40;99.90;;;;;;5039289;28;20487;-68
2023/05/30 05:51:18;;;;;;;12.50;12.00;;;11.50;99.90;;;;;;5030895;28;20566;-68
2023/05/30 05:53:45;;;;;;;14.80;13.80;;;11.60;99.90;;;;;;5043921;28;20581;-68
2023/05/30 05:56:13;;;;;;;14.70;13.90;;;11.70;99.90;;;;;;5034741;28;20465;-68
2023/05/30 05:58:40;;;;;;;12.57;12.03;;;11.60;99.90;;;;;;5039219;28;20826;-68
2023/05/30 06:01:09;;;;;;;12.30;11.80;;;11.70;99.90;;;;;;5039661;28;20859;-67
2023/05/30 06:03:37;;;;;;;12.20;11.70;;;11.60;99.90;;;;;;5040700;28;20882;-67
2023/05/30 06:06:04;;;;;;;14.07;13.20;;;11.70;99.90;;;;;;5036669;28;20463;-67
2023/05/30 06:08:31;;;;;;;13.23;12.53;;;11.80;99.90;;;;;;5040308;28;20464;-67
2023/05/30 06:10:57;;;;;;;14.50;13.80;;;12.00;99.90;;;;;;5034283;28;20468;-68
2023/05/30 06:13:24;;;;;;;12.60;12.10;;;11.90;99.90;;;;;;5038435;28;20499;-68
2023/05/30 06:15:51;;;;;;;13.97;13.27;;;11.70;99.90;;;;;;5036726;28;20461;-67
2023/05/30 06:18:19;;;;;;;13.30;12.70;;;11.70;99.90;;;;;;5036566;28;20507;-67
2023/05/30 06:20:46;;;;;;;13.80;13.20;;;11.70;99.90;;;;;;5030886;28;20975;-67
2023/05/30 06:23:13;;;;;;;14.03;13.33;;;12.00;99.90;;;;;;5034953;28;20476;-68
2023/05/30 06:25:41;;;;;;;13.23;12.53;;;12.20;99.90;;;;;;5032995;28;20479;-68
2023/05/30 06:28:07;;;;;;;19.73;14.47;;;12.30;99.90;;;;;;5046090;28;21168;-67
2023/05/30 06:30:34;;;;;;;13.90;13.30;;;12.40;99.90;;;;;;5030431;28;20843;-68
2023/05/30 06:33:01;;;;;;;15.00;14.30;;;12.50;99.90;;;;;;5040352;28;20501;-67
2023/05/30 06:35:29;;;;;;;14.30;13.70;;;12.50;99.90;;;;;;5035670;28;20463;-68
2023/05/30 06:37:56;;;;;;;16.07;15.20;;;12.50;99.90;;;;;;5039894;28;20459;-68
2023/05/30 06:40:23;;;;;;;16.00;14.57;;;12.70;99.90;;;;;;5030383;28;20465;-67
2023/05/30 06:42:50;;;;;;;14.67;13.73;;;12.70;99.90;;;;;;5036355;28;21128;-68
2023/05/30 06:45:16;;;;;;;15.27;14.23;;;12.80;99.90;;;;;;5039102;28;20460;-68
2023/05/30 06:47:44;;;;;;;17.83;16.50;;;13.00;99.90;;;;;;5035027;28;20460;-67
2023/05/30 06:50:11;;;;;;;14.53;13.93;;;13.10;99.90;;;;;;5034054;28;20978;-67
2023/05/30 06:52:40;;;;;;;13.50;12.90;;;13.20;99.90;;;;;;5033941;28;20575;-67
2023/05/30 06:55:08;;;;;;;15.73;14.70;;;13.20;99.90;;;;;;5046827;28;20867;-67
2023/05/30 06:57:36;;;;;;;16.70;15.47;;;13.20;99.90;;;;;;5045100;28;21009;-67
2023/05/30 07:00:05;;;;;;;14.80;14.10;;;13.20;99.90;;;;;;5018879;28;20463;-68
2023/05/30 07:02:31;;;;;;;15.50;14.10;;;12.90;99.90;;;;;;5029720;28;20470;-67
2023/05/30 07:04:58;;;;;;;16.40;15.40;;;13.00;99.90;;;;;;5028420;28;20567;-67
2023/05/30 07:07:25;;;;;;;17.70;16.37;;;12.90;99.90;;;;;;5034917;28;20538;-67
2023/05/30 07:09:53;;;;;;;17.23;15.57;;;12.80;99.90;;;;;;5040824;28;20468;-67
2023/05/30 07:12:20;;;;;;;15.33;14.47;;;12.70;99.90;;;;;;5034846;28;20507;-68
2023/05/30 07:14:47;;;;;;;16.47;15.37;;;12.60;99.90;;;;;;5036941;28;20823;-68
2023/05/30 07:17:14;;;;;;;18.73;17.43;;;12.70;99.90;;;;;;5036850;28;21299;-67
2023/05/30 07:19:40;;;;;;;16.10;15.07;;;13.00;99.90;;;;;;5030221;28;20488;-67
2023/05/30 07:22:07;;;;;;;15.93;15.00;;;13.00;99.90;;;;;;5039756;28;20851;-67
2023/05/30 07:24:34;;;;;;;14.97;13.97;;;13.00;99.90;;;;;;5032342;28;20539;-67
2023/05/30 07:27:02;;;;;;;19.30;17.07;;;13.10;99.90;;;;;;5039557;28;21006;-67
2023/05/30 07:29:29;;;;;;;15.80;15.00;;;13.20;99.90;;;;;;5034828;28;20479;-68
2023/05/30 07:31:59;;;;;;;14.90;14.20;;;13.40;99.90;;;;;;5035690;28;20496;-68
2023/05/30 07:34:26;;;;;;;16.70;15.40;;;13.50;99.90;;;;;;5031476;28;20800;-68
2023/05/30 07:36:53;;;;;;;17.10;16.20;;;13.70;99.90;;;;;;5039624;28;20467;-67
2023/05/30 07:39:20;;;;;;;14.67;13.97;;;13.50;99.90;;;;;;5030988;28;20472;-67
2023/05/30 07:41:46;;;;;;;15.47;14.27;;;13.30;99.90;;;;;;5037367;28;21019;-68
2023/05/30 07:44:15;;;;;;;18.87;17.67;;;13.50;99.90;;;;;;5032665;28;20463;-68
2023/05/30 07:46:42;;;;;;;14.17;13.57;;;13.70;99.90;;;;;;5037210;28;20507;-67
2023/05/30 07:49:10;;;;;;;17.10;15.90;;;13.90;99.90;;;;;;5038035;28;20557;-68
2023/05/30 07:51:37;;;;;;;16.10;15.13;;;14.00;99.90;;;;;;5035237;28;20459;-68
2023/05/30 07:54:04;;;;;;;15.53;14.63;;;14.00;99.90;;;;;;5030280;28;20541;-68
2023/05/30 07:56:31;;;;;;;15.80;15.10;;;14.00;99.90;;;;;;5036265;28;20810;-67
2023/05/30 07:58:57;;;;;;;15.30;14.63;;;14.10;99.90;;;;;;5037537;28;20460;-67
2023/05/30 08:01:27;;;;;;;15.03;14.33;;;14.40;99.90;;;;;;5037116;28;20457;-68
2023/05/30 08:03:54;;;;;;;15.97;15.20;;;14.50;99.90;;;;;;5033368;28;20523;-67
2023/05/30 08:06:21;;;;;;;16.13;15.33;;;14.80;99.90;;;;;;5035873;28;20514;-68
2023/05/30 08:08:50;;;;;;;15.50;14.50;;;15.10;99.90;;;;;;5033661;28;20502;-68
2023/05/30 08:11:19;;;;;;;17.70;16.33;;;15.20;99.90;;;;;;5037397;28;20527;-68
2023/05/30 08:13:47;;;;;;;17.13;16.13;;;15.60;99.90;;;;;;5034703;28;20562;-68
2023/05/30 08:16:14;;;;;;;17.37;16.50;;;16.00;99.90;;;;;;5034378;28;20860;-67
2023/05/30 08:18:45;;;;;;;15.93;15.23;;;16.40;99.90;;;;;;5039994;28;20549;-67
2023/05/30 08:21:13;;;;;;;15.70;14.90;;;16.50;99.90;;;;;;5031148;28;21163;-68
2023/05/30 08:23:40;;;;;;;14.10;13.50;;;16.70;99.90;;;;;;5033067;28;20460;-68
2023/05/30 08:26:08;;;;;;;14.80;14.10;;;17.10;99.90;;;;;;5036132;28;20475;-68
2023/05/30 08:28:35;;;;;;;26.03;17.83;;;17.50;99.90;;;;;;5041271;28;20982;-68
2023/05/30 08:31:05;;;;;;;15.23;14.43;;;17.70;99.90;;;;;;5040504;28;20947;-68
2023/05/30 08:33:34;;;;;;;15.67;14.97;;;17.90;99.90;;;;;;5030813;28;21019;-67
2023/05/30 08:36:02;;;;;;;14.73;14.13;;;18.50;99.90;;;;;;5035395;28;20466;-67
2023/05/30 08:38:29;;;;;;;17.67;16.23;;;18.30;99.90;;;;;;5032305;28;20461;-68
2023/05/30 08:40:55;;;;;;;16.17;14.90;;;18.50;99.90;;;;;;5030284;28;20870;-68
2023/05/30 08:43:22;;;;;;;15.63;14.83;;;18.50;99.90;;;;;;5043467;28;20468;-68
2023/05/30 08:45:52;;;;;;;16.77;15.87;;;18.90;99.90;;;;;;5036450;28;20453;-68
2023/05/30 08:48:21;;;;;;;16.80;15.97;;;18.70;99.90;;;;;;5037457;28;20954;-68
2023/05/30 08:50:48;;;;;;;18.23;16.10;;;19.30;99.90;;;;;;5037525;28;20456;-68
2023/05/30 08:53:22;;;;;;;15.53;14.73;;;19.30;99.90;;;;;;5038241;28;20538;-68
2023/05/30 08:55:55;;;;;;;16.70;15.80;;;19.20;99.90;;;;;;5035976;28;20456;-67
2023/05/30 08:58:26;;;;;;;19.07;17.77;;;19.20;99.90;;;;;;5032384;28;20464;-67
2023/05/30 09:00:54;;;;;;;16.27;15.47;;;19.50;99.90;;;;;;5030655;28;20472;-68
2023/05/30 09:03:23;;;;;;;17.00;16.10;;;19.60;99.90;;;;;;5040407;28;20460;-68
2023/05/30 09:05:51;;;;;;;16.53;15.73;;;19.90;99.90;;;;;;5035667;28;20550;-67
2023/05/30 09:08:19;;;;;;;17.27;16.40;;;19.70;99.60;;;;;;5031517;28;20473;-67
2023/05/30 09:10:50;;;;;;;16.90;16.07;;;19.70;99.30;;;;;;5032835;28;20476;-67
2023/05/30 09:13:18;;;;;;;17.53;16.20;;;20.20;97.40;;;;;;5031842;28;20495;-68
2023/05/30 09:15:45;;;;;;;15.13;14.53;;;20.40;98.10;;;;;;5034705;28;20464;-68
2023/05/30 09:18:12;;;;;;;15.00;14.20;;;20.30;98.10;;;;;;5032130;28;20545;-67
2023/05/30 09:20:41;;;;;;;15.43;14.57;;;20.90;97.30;;;;;;5031848;28;20499;-68
2023/05/30 09:23:08;;;;;;;17.83;16.40;;;20.80;95.60;;;;;;5034383;28;20468;-68
2023/05/30 09:25:44;;;;;;;16.60;15.80;;;21.10;95.30;;;;;;5032848;28;20877;-67
2023/05/30 09:28:12;;;;;;;16.70;15.30;;;21.00;96.20;;;;;;5035561;28;20463;-67
2023/05/30 09:30:54;;;;;;;16.03;15.10;;;20.70;96.70;;;;;;5034407;28;21399;-68
2023/05/30 09:33:21;;;;;;;14.90;14.30;;;20.30;96.80;;;;;;5031088;28;20503;-67
2023/05/30 09:35:52;;;;;;;17.20;16.00;;;20.20;95.60;;;;;;5034694;28;20463;-68
2023/05/30 09:38:22;;;;;;;16.47;15.07;;;20.60;94.80;;;;;;5033115;28;21312;-67
2023/05/30 09:40:55;;;;;;;13.90;13.40;;;20.90;93.50;;;;;;5037118;28;20982;-68
2023/05/30 09:43:34;;;;;;;14.73;14.13;;;21.30;94.50;;;;;;5033387;28;20456;-68
2023/05/30 09:46:03;;;;;;;15.33;14.50;;;21.80;93.80;;;;;;5031730;28;20590;-68
2023/05/30 09:48:30;;;;;;;15.43;14.73;;;21.70;94.10;;;;;;5031247;28;20488;-68
2023/05/30 09:51:00;;;;;;;15.53;14.73;;;21.80;93.40;;;;;;5031922;28;20491;-68
2023/05/30 09:53:29;;;;;;;26.47;18.67;;;20.80;92.90;;;;;;5032807;28;20488;-68
2023/05/30 09:55:57;;;;;;;14.80;14.10;;;20.90;91.70;;;;;;5035748;28;20547;-67
2023/05/30 09:58:25;;;;;;;16.00;15.20;;;21.50;91.80;;;;;;5033640;28;20464;-68
2023/05/30 10:00:53;;;;;;;15.27;14.57;;;21.80;91.90;;;;;;5037432;28;20457;-67
2023/05/30 10:03:21;;;;;;;14.17;13.57;;;22.30;92.30;;;;;;5033323;28;20861;-68
2023/05/30 10:05:48;;;;;;;14.33;13.70;;;22.40;91.30;;;;;;5036344;28;20467;-68
2023/05/30 10:08:16;;;;;;;20.90;16.70;;;22.60;90.60;;;;;;5030581;28;20463;-67
2023/05/30 10:10:44;;;;;;;16.00;15.00;;;21.90;90.40;;;;;;5035566;28;20472;-68
2023/05/30 10:13:12;;;;;;;14.70;14.00;;;21.20;91.60;;;;;;5028687;28;20848;-68
2023/05/30 10:15:39;;;;;;;16.50;15.60;;;21.80;91.80;;;;;;5035617;28;20865;-68
2023/05/30 10:18:08;;;;;;;13.90;13.40;;;22.00;89.60;;;;;;5039808;28;20469;-68
2023/05/30 10:20:38;;;;;;;15.20;14.37;;;23.00;90.10;;;;;;5037950;28;20488;-67
2023/05/30 10:23:07;;;;;;;14.97;14.37;;;23.10;86.20;;;;;;5039823;28;20468;-68
2023/05/30 10:25:36;;;;;;;15.10;14.40;;;22.80;84.20;;;;;;5042041;28;20492;-67
2023/05/30 10:28:06;;;;;;;16.27;15.43;;;23.10;83.00;;;;;;5039621;28;20456;-68
2023/05/30 10:30:35;;;;;;;13.70;13.20;;;23.60;78.40;;;;;;5046062;28;20480;-68
2023/05/30 10:33:05;;;;;;;14.83;13.93;;;23.70;78.40;;;;;;5045766;28;20855;-68
2023/05/30 10:35:33;;;;;;;15.63;14.93;;;24.30;80.60;;;;;;5038976;28;20543;-68
2023/05/30 10:38:01;;;;;;;15.63;14.80;;;24.10;81.30;;;;;;5033222;28;20457;-67
2023/05/30 10:40:46;;;;;;;15.90;14.90;;;24.80;77.50;;;;;;5038872;28;20464;-68
2023/05/30 10:43:24;;;;;;;14.43;13.83;;;24.20;75.00;;;;;;5038840;28;20666;-68
2023/05/30 10:46:13;;;;;;;16.13;14.90;;;24.40;75.80;;;;;;5039497;28;20478;-68
2023/05/30 10:48:49;;;;;;;14.57;13.80;;;23.90;75.50;;;;;;5040592;28;20463;-68
2023/05/30 10:51:16;;;;;;;14.43;13.83;;;24.20;72.00;;;;;;5034762;28;20463;-68
2023/05/30 10:53:44;;;;;;;14.77;14.10;;;24.20;72.60;;;;;;5037039;28;21037;-67
2023/05/30 10:56:40;;;;;;;13.97;13.37;;;24.20;72.00;;;;;;5039611;28;20463;-68
2023/05/30 10:59:14;;;;;;;14.27;13.67;;;25.00;72.50;;;;;;5033913;28;20973;-68
2023/05/30 11:01:42;;;;;;;26.97;15.90;;;24.80;71.80;;;;;;5033549;28;20463;-68
2023/05/30 11:04:11;;;;;;;16.97;15.63;;;24.70;68.00;;;;;;5038451;28;20475;-68
2023/05/30 11:06:41;;;;;;;15.10;14.40;;;25.00;67.20;;;;;;5038220;28;20460;-68
2023/05/30 11:09:09;;;;;;;14.47;13.87;;;24.90;66.30;;;;;;5029536;28;20487;-68
2023/05/30 11:11:41;;;;;;;15.43;14.63;;;25.10;67.50;;;;;;5036807;28;20963;-68
2023/05/30 11:14:09;;;;;;;15.53;14.73;;;25.30;63.40;;;;;;5036895;28;20489;-68
2023/05/30 11:16:55;;;;;;;13.83;13.33;;;24.70;61.30;;;;;;5037567;28;20456;-68
2023/05/30 11:19:25;;;;;;;14.67;13.87;;;25.00;62.70;;;;;;5043004;28;20484;-68
2023/05/30 11:21:57;;;;;;;17.33;15.63;;;25.50;58.70;;;;;;5032323;28;20547;-68
2023/05/30 11:24:24;;;;;;;14.57;13.97;;;25.50;59.80;;;;;;5034223;28;20460;-68
2023/05/30 11:27:01;;;;;;;16.23;14.67;;;26.00;59.90;;;;;;5032644;28;20831;-68
2023/05/30 11:29:33;;;;;;;15.83;15.10;;;26.40;57.70;;;;;;5040803;28;20491;-68
2023/05/30 11:32:02;;;;;;;15.67;14.97;;;25.90;58.50;;;;;;5042497;28;20486;-68
2023/05/30 11:34:29;;;;;;;14.70;14.00;;;26.00;59.10;;;;;;5033866;28;21116;-68
2023/05/30 11:36:57;;;;;;;15.17;14.20;;;26.10;56.20;;;;;;5031416;28;20560;-68
2023/05/30 11:39:25;;;;;;;15.33;14.53;;;26.00;56.30;;;;;;5036358;28;21059;-68
2023/05/30 11:41:52;;;;;;;14.70;14.10;;;26.10;56.60;;;;;;5034570;28;20543;-68
2023/05/30 11:44:20;;;;;;;17.60;16.23;;;26.00;55.40;;;;;;5031457;28;20467;-68
2023/05/30 11:46:58;;;;;;;15.07;14.37;;;25.90;56.50;;;;;;5034169;28;21337;-68
2023/05/30 11:49:27;;;;;;;14.37;13.67;;;25.80;55.80;;;;;;5038197;28;20574;-68
2023/05/30 11:51:54;;;;;;;14.30;13.63;;;26.00;54.80;;;;;;5030232;28;20541;-68
2023/05/30 11:54:22;;;;;;;14.83;13.83;;;25.90;55.80;;;;;;5033033;28;20500;-68
2023/05/30 11:56:50;;;;;;;13.00;12.50;;;26.20;56.80;;;;;;5035532;28;20465;-68
2023/05/30 12:02:00;;;;;;;14.50;13.90;;;26.30;54.40;;;;;;5035657;28;20530;-68
2023/05/30 12:04:30;;;;;;;13.47;12.97;;;26.10;54.70;;;;;;5031738;28;20465;-68
2023/05/30 12:07:02;;;;;;;15.80;14.90;;;26.80;54.10;;;;;;5040741;28;20850;-69
2023/05/30 12:09:29;;;;;;;13.60;13.10;;;26.90;54.80;;;;;;5037166;28;20592;-68
2023/05/30 12:11:59;;;;;;;14.47;13.87;;;26.50;53.80;;;;;;5038924;28;20884;-68
2023/05/30 12:14:30;;;;;;;14.27;13.67;;;26.60;54.00;;;;;;5034810;28;20606;-68
2023/05/30 12:16:57;;;;;;;15.30;14.57;;;27.10;54.80;;;;;;5032982;28;20541;-68
2023/05/30 12:19:29;;;;;;;14.30;13.70;;;27.30;54.10;;;;;;5036441;28;20991;-68
2023/05/30 12:21:57;;;;;;;14.87;14.07;;;27.50;53.70;;;;;;5035430;28;20456;-68
2023/05/30 12:24:24;;;;;;;13.30;12.80;;;27.80;52.50;;;;;;5037278;28;21068;-68
2023/05/30 12:26:55;;;;;;;15.10;14.40;;;28.00;52.20;;;;;;5033718;28;20966;-68
2023/05/30 12:29:24;;;;;;;15.83;14.83;;;28.10;52.10;;;;;;5036145;28;20938;-68
2023/05/30 12:31:52;;;;;;;15.43;14.43;;;27.30;52.40;;;;;;5036506;28;20800;-68
2023/05/30 12:34:20;;;;;;;13.60;13.00;;;27.30;51.50;;;;;;5034687;28;20492;-68
2023/05/30 12:36:50;;;;;;;14.10;13.40;;;27.50;51.70;;;;;;5036623;28;20530;-68
2023/05/30 12:39:17;;;;;;;13.57;12.97;;;27.70;52.10;;;;;;5034045;28;20502;-68
2023/05/30 12:41:44;;;;;;;13.20;12.70;;;28.20;51.80;;;;;;5029651;28;20468;-68
2023/05/30 12:44:17;;;;;;;14.77;14.07;;;28.10;52.30;;;;;;5031933;28;20464;-68
2023/05/30 12:46:44;;;;;;;14.20;13.50;;;28.10;51.30;;;;;;5032716;28;20589;-68